createdAt,value
2023-04-18T00:03:00.924Z,1.25
2023-04-18T00:06:05.881Z,1.33
2023-04-18T00:09:08.181Z,1.60
2023-04-18T00:12:11.220Z,3.83
2023-04-18T00:15:13.665Z,2.00
2023-04-18T00:18:17.268Z,1.90
2023-04-18T00:21:19.563Z,1.95
2023-04-18T00:24:22.194Z,2.15
2023-04-18T00:27:24.420Z,1.62
2023-04-18T00:30:27.142Z,2.03
2023-04-18T00:33:29.464Z,2.08
2023-04-18T00:36:31.768Z,1.75
2023-04-18T00:39:35.740Z,2.17
2023-04-18T00:42:37.923Z,1.62
2023-04-18T00:45:40.103Z,2.17
2023-04-18T00:48:42.424Z,2.15
2023-04-18T00:51:44.856Z,2.00
2023-04-18T00:54:47.409Z,1.73
2023-04-18T00:57:50.856Z,1.90
2023-04-18T01:00:54.554Z,2.03
2023-04-18T01:03:56.941Z,2.08
2023-04-18T01:06:59.357Z,1.95
2023-04-18T01:10:02.029Z,2.12
2023-04-18T01:13:11.803Z,2.00
2023-04-18T01:16:14.040Z,2.25
2023-04-18T01:19:19.564Z,2.17
2023-04-18T01:22:21.779Z,2.55
2023-04-18T01:25:24.007Z,2.12
2023-04-18T01:28:27.801Z,2.50
2023-04-18T01:31:30.155Z,2.15
2023-04-18T01:34:32.417Z,2.30
2023-04-18T01:37:34.591Z,2.55
2023-04-18T01:40:36.839Z,2.50
2023-04-18T01:43:39.086Z,2.40
2023-04-18T01:46:41.365Z,2.45
2023-04-18T01:49:48.118Z,2.60
2023-04-18T01:52:50.343Z,2.72
2023-04-18T01:55:52.751Z,2.30
2023-04-18T01:58:54.903Z,2.37
2023-04-18T02:01:57.207Z,2.72
2023-04-18T02:04:59.528Z,2.60
2023-04-18T02:08:01.724Z,2.60
2023-04-18T02:11:03.892Z,2.95
2023-04-18T02:14:06.604Z,3.05
2023-04-18T02:17:08.806Z,3.08
2023-04-18T02:20:11.110Z,3.20
2023-04-18T02:23:13.346Z,2.70
2023-04-18T02:26:15.529Z,2.37
2023-04-18T02:29:17.736Z,2.58
2023-04-18T02:32:19.983Z,2.40
2023-04-18T02:35:22.501Z,2.22
2023-04-18T02:38:24.749Z,2.72
2023-04-18T02:41:26.950Z,2.97
2023-04-18T02:44:29.182Z,2.50
2023-04-18T02:47:37.551Z,2.95
2023-04-18T02:50:45.919Z,2.92
2023-04-18T02:53:48.463Z,2.92
2023-04-18T02:56:56.995Z,3.00
2023-04-18T02:59:59.183Z,2.85
2023-04-18T03:03:01.520Z,3.47
2023-04-18T03:06:04.090Z,2.92
2023-04-18T03:09:06.277Z,2.92
2023-04-18T03:12:08.485Z,3.60
2023-04-18T03:15:11.462Z,5.75
2023-04-18T03:18:13.689Z,3.12
2023-04-18T03:21:15.897Z,2.60
2023-04-18T03:24:18.099Z,2.45
2023-04-18T03:27:20.260Z,2.92
2023-04-18T03:30:22.709Z,3.47
2023-04-18T03:33:25.092Z,2.30
2023-04-18T03:36:28.747Z,3.05
2023-04-18T03:39:30.994Z,2.08
2023-04-18T03:42:33.169Z,1.48
2023-04-18T03:45:35.368Z,1.33
2023-04-18T03:48:37.584Z,2.00
2023-04-18T03:51:45.282Z,0.70
2023-04-18T03:54:47.489Z,0.80
2023-04-18T03:57:49.722Z,1.73
2023-04-18T04:00:52.092Z,1.08
2023-04-18T04:03:54.473Z,0.80
2023-04-18T04:06:56.817Z,1.12
2023-04-18T04:09:59.019Z,1.12
2023-04-18T04:13:01.212Z,1.08
2023-04-18T04:16:03.583Z,0.65
2023-04-18T04:19:05.879Z,0.90
2023-04-18T04:22:08.218Z,1.15
2023-04-18T04:25:10.618Z,1.15
2023-04-18T04:28:14.026Z,1.10
2023-04-18T04:31:16.449Z,0.98
2023-04-18T04:34:19.122Z,0.98
2023-04-18T04:37:21.315Z,0.80
2023-04-18T04:40:23.841Z,0.90
2023-04-18T04:43:28.807Z,1.10
2023-04-18T04:46:31.195Z,1.45
2023-04-18T04:49:33.387Z,1.37
2023-04-18T04:52:35.791Z,1.25
2023-04-18T04:55:38.830Z,1.00
2023-04-18T04:58:41.014Z,0.88
2023-04-18T05:01:43.289Z,1.37
2023-04-18T05:05:06.042Z,0.60
2023-04-18T05:08:08.617Z,1.17
2023-04-18T05:11:10.905Z,1.27
2023-04-18T05:14:13.664Z,0.85
2023-04-18T05:17:16.473Z,0.98
2023-04-18T05:20:18.853Z,1.08
2023-04-18T05:23:21.524Z,1.05
2023-04-18T05:26:24.474Z,0.98
2023-04-18T05:29:27.216Z,1.10
2023-04-18T05:32:29.925Z,1.42
2023-04-18T05:35:32.580Z,0.90
2023-04-18T05:38:35.385Z,0.93
2023-04-18T05:41:38.076Z,1.05
2023-04-18T05:44:40.736Z,0.95
2023-04-18T05:47:43.254Z,0.75
2023-04-18T05:50:45.923Z,0.90
2023-04-18T05:53:48.112Z,0.82
2023-04-18T05:56:50.424Z,0.75
2023-04-18T05:59:52.672Z,0.85
2023-04-18T06:02:55.081Z,0.80
2023-04-18T06:05:57.883Z,0.70
2023-04-18T06:09:00.218Z,0.75
2023-04-18T06:12:02.391Z,1.05
2023-04-18T06:15:05.717Z,0.90
2023-04-18T06:18:07.983Z,0.65
2023-04-18T06:21:10.194Z,0.62
2023-04-18T06:24:12.806Z,1.33
2023-04-18T06:27:27.935Z,0.75
2023-04-18T06:30:30.533Z,1.05
2023-04-18T06:33:33.424Z,0.73
2023-04-18T06:36:35.670Z,1.02
2023-04-18T06:39:37.870Z,1.02
2023-04-18T06:42:40.168Z,0.82
2023-04-18T06:45:42.440Z,0.90
2023-04-18T06:48:44.719Z,0.73
2023-04-18T06:51:46.884Z,0.70
2023-04-18T06:54:49.051Z,0.50
2023-04-18T06:57:51.314Z,0.80
2023-04-18T07:00:54.226Z,0.80
2023-04-18T07:03:56.633Z,0.73
2023-04-18T07:06:58.894Z,0.73
2023-04-18T07:10:01.401Z,0.73
2023-04-18T07:13:03.582Z,0.98
2023-04-18T07:16:06.257Z,0.60
2023-04-18T07:19:08.431Z,0.43
2023-04-18T07:22:10.762Z,0.93
2023-04-18T07:25:12.936Z,0.40
2023-04-18T07:28:15.266Z,0.57
2023-04-18T07:31:19.500Z,0.70
2023-04-18T07:34:22.915Z,0.75
2023-04-18T07:37:25.397Z,0.73
2023-04-18T07:40:27.727Z,0.60
2023-04-18T07:43:30.003Z,0.60
2023-04-18T07:46:33.966Z,0.77
2023-04-18T07:49:36.948Z,0.68
2023-04-18T07:52:40.229Z,1.02
2023-04-18T07:55:43.354Z,0.80
2023-04-18T07:58:45.637Z,0.60
2023-04-18T08:01:47.856Z,0.77
2023-04-18T08:04:52.159Z,0.70
2023-04-18T08:07:54.579Z,0.65
2023-04-18T08:10:56.877Z,0.62
2023-04-18T08:13:59.363Z,0.80
2023-04-18T08:17:01.566Z,0.70
2023-04-18T08:20:07.225Z,0.52
2023-04-18T08:23:12.214Z,0.60
2023-04-18T08:26:15.432Z,1.10
2023-04-18T08:29:17.707Z,0.60
2023-04-18T08:32:19.923Z,0.50
2023-04-18T08:35:22.183Z,0.40
2023-04-18T08:38:24.381Z,0.50
2023-04-18T08:41:27.160Z,0.70
2023-04-18T08:44:29.923Z,0.55
2023-04-18T08:47:32.158Z,0.82
2023-04-18T08:50:34.429Z,0.65
2023-04-18T08:53:36.624Z,0.73
2023-04-18T08:56:38.871Z,0.90
2023-04-18T08:59:43.162Z,0.70
2023-04-18T09:02:47.295Z,0.50
2023-04-18T09:06:08.392Z,0.45
2023-04-18T09:09:10.629Z,0.60
2023-04-18T09:12:18.390Z,0.57
2023-04-18T09:15:23.606Z,0.70
2023-04-18T09:18:25.986Z,0.40
2023-04-18T09:21:29.785Z,0.60
2023-04-18T09:24:32.494Z,0.60
2023-04-18T09:27:34.910Z,0.40
2023-04-18T09:30:42.228Z,0.98
2023-04-18T09:33:56.793Z,0.47
2023-04-18T09:37:07.347Z,0.47
2023-04-18T09:40:27.489Z,0.40
2023-04-18T09:43:29.682Z,0.65
2023-04-18T09:46:33.180Z,0.68
2023-04-18T09:49:35.574Z,0.60
2023-04-18T09:52:42.141Z,0.52
2023-04-18T09:55:44.358Z,0.62
2023-04-18T09:58:47.664Z,0.37
2023-04-18T10:01:50.031Z,0.70
2023-04-18T10:04:54.155Z,0.70
2023-04-18T10:07:56.979Z,1.08
2023-04-18T10:10:59.182Z,0.65
2023-04-18T10:14:04.622Z,0.65
2023-04-18T10:17:07.536Z,0.70
2023-04-18T10:20:17.268Z,0.90
2023-04-18T10:23:31.926Z,0.62
2023-04-18T10:26:46.954Z,0.60
2023-04-18T10:29:54.039Z,0.90
2023-04-18T10:32:56.279Z,0.30
2023-04-18T10:35:59.567Z,0.60
2023-04-18T10:39:03.525Z,0.50
2023-04-18T10:42:05.731Z,0.50
2023-04-18T10:45:21.542Z,0.70
2023-04-18T10:48:25.539Z,0.77
2023-04-18T10:51:29.079Z,0.50
2023-04-18T10:54:49.770Z,0.90
2023-04-18T10:57:55.999Z,0.40
2023-04-18T11:00:58.296Z,0.52
2023-04-18T11:04:01.091Z,0.52
2023-04-18T11:07:03.560Z,0.50
2023-04-18T11:10:07.257Z,0.80
2023-04-18T11:13:09.499Z,0.50
2023-04-18T11:16:26.297Z,0.43
2023-04-18T11:19:28.620Z,0.47
2023-04-18T11:22:31.120Z,0.50
2023-04-18T11:25:36.377Z,0.60
2023-04-18T11:28:38.591Z,0.55
2023-04-18T11:31:41.587Z,0.50
2023-04-18T11:34:43.835Z,0.68
2023-04-18T11:37:46.143Z,1.90
2023-04-18T11:40:49.092Z,2.37
2023-04-18T11:43:51.298Z,0.73
2023-04-18T11:46:54.031Z,0.50
2023-04-18T11:50:03.532Z,0.50
2023-04-18T11:53:05.834Z,0.60
2023-04-18T11:56:08.096Z,0.62
2023-04-18T11:59:10.345Z,0.50
2023-04-18T12:02:16.751Z,0.77
2023-04-18T12:05:30.422Z,0.98
2023-04-18T12:08:33.004Z,0.50
2023-04-18T12:11:35.165Z,0.47
2023-04-18T12:14:37.385Z,0.30
2023-04-18T12:17:39.714Z,0.50
2023-04-18T12:20:46.195Z,0.43
2023-04-18T12:23:48.553Z,0.50
2023-04-18T12:26:50.950Z,0.90
2023-04-18T12:29:53.092Z,0.43
2023-04-18T12:33:01.922Z,0.60
2023-04-18T12:36:11.174Z,0.50
2023-04-18T12:39:13.458Z,1.40
2023-04-18T12:42:15.858Z,0.70
2023-04-18T12:45:19.463Z,0.80
2023-04-18T12:48:21.614Z,0.50
2023-04-18T12:51:24.887Z,0.50
2023-04-18T12:54:27.216Z,0.82
2023-04-18T12:57:31.586Z,0.80
2023-04-18T13:00:34.118Z,0.85
2023-04-18T13:03:36.753Z,0.50
2023-04-18T13:06:39.158Z,0.68
2023-04-18T13:09:41.397Z,0.62
2023-04-18T13:12:44.161Z,0.60
2023-04-18T13:15:46.382Z,0.80
2023-04-18T13:18:48.556Z,0.43
2023-04-18T13:21:51.111Z,0.50
2023-04-18T13:24:53.399Z,0.60
2023-04-18T13:27:56.358Z,0.62
2023-04-18T13:30:59.702Z,0.73
2023-04-18T13:34:02.054Z,0.55
2023-04-18T13:37:04.234Z,0.57
2023-04-18T13:40:07.184Z,0.82
2023-04-18T13:43:11.120Z,0.65
2023-04-18T13:46:13.741Z,0.60
2023-04-18T13:49:16.169Z,0.70
2023-04-18T13:52:18.413Z,0.50
2023-04-18T13:55:21.077Z,0.62
2023-04-18T13:58:23.256Z,0.60
2023-04-18T14:01:25.499Z,0.60
2023-04-18T14:04:27.838Z,0.50
2023-04-18T14:07:31.140Z,0.60
2023-04-18T14:10:33.331Z,0.47
2023-04-18T14:13:35.906Z,0.68
2023-04-18T14:16:38.096Z,0.65
2023-04-18T14:19:40.313Z,0.60
2023-04-18T14:22:42.499Z,0.50
2023-04-18T14:25:44.722Z,0.47
2023-04-18T14:28:47.064Z,0.60
2023-04-18T14:31:49.314Z,0.75
2023-04-18T14:34:52.525Z,0.50
2023-04-18T14:37:54.734Z,0.88
2023-04-18T14:40:58.299Z,0.70
2023-04-18T14:44:00.459Z,0.50
2023-04-18T14:47:02.787Z,0.70
2023-04-18T14:50:09.532Z,0.50
2023-04-18T14:53:13.284Z,0.80
2023-04-18T14:56:16.362Z,1.02
2023-04-18T14:59:18.759Z,0.90
2023-04-18T15:02:21.784Z,1.10
2023-04-18T15:05:24.135Z,0.62
2023-04-18T15:08:26.842Z,0.90
2023-04-18T15:11:29.052Z,0.50
2023-04-18T15:14:32.800Z,0.68
2023-04-18T15:17:35.908Z,0.55
2023-04-18T15:20:39.522Z,0.75
2023-04-18T15:23:41.999Z,0.50
2023-04-18T15:26:44.279Z,0.55
2023-04-18T15:29:47.031Z,0.60
2023-04-18T15:32:49.311Z,0.60
2023-04-18T15:35:51.537Z,0.70
2023-04-18T15:38:53.721Z,0.60
2023-04-18T15:41:56.575Z,0.65
2023-04-18T15:44:58.774Z,0.70
2023-04-18T15:48:01.026Z,0.57
2023-04-18T15:51:03.905Z,0.70
2023-04-18T15:54:06.581Z,0.50
2023-04-18T15:57:09.873Z,0.73
2023-04-18T16:00:16.157Z,0.60
2023-04-18T16:03:18.668Z,1.00
2023-04-18T16:06:23.344Z,0.68
2023-04-18T16:09:25.693Z,1.55
2023-04-18T16:12:27.895Z,0.85
2023-04-18T16:15:31.430Z,0.77
2023-04-18T16:18:34.185Z,0.57
2023-04-18T16:21:36.830Z,0.65
2023-04-18T16:24:41.554Z,0.60
2023-04-18T16:27:44.528Z,0.88
2023-04-18T16:30:47.303Z,0.93
2023-04-18T16:33:52.543Z,0.90
2023-04-18T16:36:55.665Z,1.87
2023-04-18T16:39:58.067Z,1.87
2023-04-18T16:43:00.602Z,0.70
2023-04-18T16:46:03.402Z,1.50
2023-04-18T16:49:05.623Z,0.80
2023-04-18T16:52:08.008Z,1.00
2023-04-18T16:55:10.987Z,1.60
2023-04-18T16:58:13.266Z,0.93
2023-04-18T17:01:15.601Z,0.90
2023-04-18T17:04:19.081Z,0.90
2023-04-18T17:07:21.300Z,0.60
2023-04-18T17:10:23.783Z,0.93
2023-04-18T17:13:27.236Z,1.30
2023-04-18T17:16:31.864Z,1.20
2023-04-18T17:19:34.242Z,0.98
2023-04-18T17:22:36.713Z,0.80
2023-04-18T17:25:39.208Z,1.30
2023-04-18T17:28:41.495Z,12.32
2023-04-18T17:31:44.267Z,5.65
2023-04-18T17:34:46.756Z,5.45
2023-04-18T17:37:50.036Z,2.58
2023-04-18T17:41:02.339Z,1.70
2023-04-18T17:44:05.642Z,2.12
2023-04-18T17:47:08.179Z,1.48
2023-04-18T17:50:10.960Z,1.62
2023-04-18T17:53:13.506Z,1.30
2023-04-18T17:56:16.391Z,1.87
2023-04-18T17:59:18.927Z,1.80
2023-04-18T18:02:23.325Z,1.52
2023-04-18T18:05:30.396Z,1.25
2023-04-18T18:08:33.382Z,2.00
2023-04-18T18:11:37.153Z,1.90
2023-04-18T18:14:40.579Z,2.25
2023-04-18T18:17:43.238Z,2.40
2023-04-18T18:20:45.878Z,2.58
2023-04-18T18:23:48.758Z,1.60
2023-04-18T18:26:51.863Z,2.35
2023-04-18T18:29:54.505Z,2.17
2023-04-18T18:32:57.348Z,2.25
2023-04-18T18:35:59.915Z,2.62
2023-04-18T18:39:02.296Z,2.20
2023-04-18T18:42:04.984Z,3.65
2023-04-18T18:45:08.344Z,3.08
2023-04-18T18:48:11.564Z,2.80
2023-04-18T18:51:15.803Z,3.10
2023-04-18T18:54:18.416Z,2.85
2023-04-18T18:57:21.162Z,1.42
2023-04-18T19:00:24.855Z,1.20
2023-04-18T19:03:27.911Z,0.90
2023-04-18T19:06:31.271Z,0.73
2023-04-18T19:09:34.180Z,1.40
2023-04-18T19:12:37.859Z,0.90
2023-04-18T19:15:40.623Z,1.20
2023-04-18T19:18:46.959Z,1.27
2023-04-18T19:21:50.117Z,1.08
2023-04-18T19:24:52.765Z,0.70
2023-04-18T19:27:55.336Z,0.95
2023-04-18T19:30:57.876Z,0.80
2023-04-18T19:34:00.596Z,0.70
2023-04-18T19:37:03.718Z,0.82
2023-04-18T19:40:07.385Z,0.90
2023-04-18T19:43:09.857Z,0.98
2023-04-18T19:46:12.382Z,1.60
2023-04-18T19:49:15.271Z,0.95
2023-04-18T19:52:18.451Z,0.90
2023-04-18T19:55:20.997Z,0.85
2023-04-18T19:58:44.923Z,1.15
2023-04-18T20:01:47.801Z,1.00
2023-04-18T20:04:50.645Z,1.20
2023-04-18T20:07:53.194Z,0.95
2023-04-18T20:10:56.521Z,0.70
2023-04-18T20:14:00.664Z,1.77
2023-04-18T20:17:03.074Z,0.85
2023-04-18T20:20:08.281Z,1.33
2023-04-18T20:23:11.563Z,1.67
2023-04-18T20:26:14.135Z,1.30
2023-04-18T20:29:16.983Z,2.20
2023-04-18T20:32:19.412Z,2.22
2023-04-18T20:35:22.512Z,1.42
2023-04-18T20:38:26.063Z,1.98
2023-04-18T20:41:31.008Z,1.20
2023-04-18T20:44:35.161Z,1.45
2023-04-18T20:47:39.233Z,1.35
2023-04-18T20:50:43.908Z,1.58
2023-04-18T20:53:46.419Z,1.05
2023-04-18T20:56:48.757Z,1.12
2023-04-18T20:59:51.029Z,1.10
2023-04-18T21:02:53.309Z,1.20
2023-04-18T21:05:56.022Z,1.23
2023-04-18T21:08:58.377Z,1.12
2023-04-18T21:12:01.747Z,0.93
2023-04-18T21:15:05.529Z,0.93
2023-04-18T21:18:07.831Z,1.00
2023-04-18T21:21:10.049Z,1.55
2023-04-18T21:24:12.369Z,1.10
2023-04-18T21:27:15.901Z,1.27
2023-04-18T21:30:18.221Z,1.10
2023-04-18T21:33:20.430Z,0.93
2023-04-18T21:36:24.220Z,1.05
2023-04-18T21:39:27.361Z,1.15
2023-04-18T21:42:29.556Z,0.80
2023-04-18T21:45:31.820Z,1.20
2023-04-18T21:48:34.102Z,1.30
2023-04-18T21:51:36.388Z,1.20
2023-04-18T21:54:39.925Z,0.75
2023-04-18T21:57:42.115Z,0.82
2023-04-18T22:00:44.338Z,1.00
2023-04-18T22:03:46.990Z,1.15
2023-04-18T22:06:49.401Z,1.00
2023-04-18T22:09:51.689Z,1.20
2023-04-18T22:12:54.235Z,0.70
2023-04-18T22:15:58.190Z,0.88
2023-04-18T22:19:01.385Z,0.85
2023-04-18T22:22:03.724Z,1.75
2023-04-18T22:25:07.313Z,1.33
2023-04-18T22:28:09.538Z,1.40
2023-04-18T22:31:11.772Z,1.30
2023-04-18T22:34:14.276Z,1.50
2023-04-18T22:37:16.757Z,1.27
2023-04-18T22:40:18.983Z,1.10
2023-04-18T22:43:23.657Z,0.82
2023-04-18T22:46:27.284Z,1.00
2023-04-18T22:49:30.115Z,1.02
2023-04-18T22:52:32.300Z,1.37
2023-04-18T22:55:34.543Z,1.20
2023-04-18T22:58:36.750Z,1.05
2023-04-18T23:01:38.977Z,1.30
2023-04-18T23:04:42.470Z,1.10
2023-04-18T23:07:44.687Z,0.98
2023-04-18T23:10:46.915Z,1.45
2023-04-18T23:13:49.115Z,1.30
2023-04-18T23:16:51.291Z,1.40
2023-04-18T23:19:53.527Z,1.10
2023-04-18T23:22:56.086Z,1.33
2023-04-18T23:25:58.287Z,1.30
2023-04-18T23:29:00.533Z,0.95
2023-04-18T23:32:02.876Z,1.05
2023-04-18T23:35:06.187Z,1.37
2023-04-18T23:38:08.687Z,0.98
2023-04-18T23:41:10.900Z,1.10
2023-04-18T23:44:13.200Z,1.10
2023-04-18T23:47:15.696Z,1.35
2023-04-18T23:50:18.178Z,1.12
2023-04-18T23:53:21.733Z,0.70
2023-04-18T23:56:24.043Z,0.93
2023-04-18T23:59:26.233Z,0.98
